Time;durP1;ratioP1;P1;durP2;ratioP2;P2;SDS_P1;SDS_P2;PMS_P1;PMS_P2;Temp;Humidity;BMP_temperature;BMP_pressure;BME280_temperature;BME280_humidity;BME280_pressure;Samples;Min_cycle;Max_cycle;Signal;HPM_P1;HPM_P2
2023/07/15 00:01:27;;;;;;;10.82;5.13;;;19.00;99.90;;;18.09;76.88;100950.50;5013644;28;20119;-73
2023/07/15 00:03:54;;;;;;;10.57;4.88;;;19.00;99.90;;;18.03;76.70;100948.28;5028859;28;20071;-72
2023/07/15 00:06:22;;;;;;;9.82;4.82;;;19.00;99.90;;;18.06;76.66;100956.06;4995751;28;20090;-72
2023/07/15 00:08:48;;;;;;;10.48;4.47;;;18.90;99.90;;;18.03;76.09;100949.16;4991171;28;20068;-73
2023/07/15 00:11:42;;;;;;;8.40;4.15;;;18.90;99.90;;;18.05;75.55;100959.69;5027498;28;20039;-72
2023/07/15 00:14:17;;;;;;;12.43;4.20;;;18.90;99.90;;;18.01;75.08;100948.41;5027276;28;20048;-72
2023/07/15 00:16:43;;;;;;;9.00;4.45;;;18.90;99.90;;;18.03;74.64;100948.28;5006420;28;20040;-72
2023/07/15 00:19:10;;;;;;;8.90;4.18;;;18.90;99.90;;;18.06;74.40;100955.22;5031078;28;20053;-71
2023/07/15 00:21:36;;;;;;;8.43;4.45;;;19.00;99.90;;;18.01;73.93;100950.22;5011511;28;20033;-72
2023/07/15 00:24:02;;;;;;;15.00;4.57;;;18.90;99.90;;;18.03;73.61;100945.63;5007605;28;20057;-75
2023/07/15 00:26:32;;;;;;;12.25;4.28;;;18.90;99.90;;;18.08;73.40;100945.28;5004335;28;20061;-72
2023/07/15 00:28:58;;;;;;;8.00;4.22;;;18.90;99.90;;;18.02;73.01;100935.94;5002232;28;20501;-71
2023/07/15 00:31:26;;;;;;;11.63;4.30;;;18.90;99.90;;;18.05;72.87;100938.38;5005133;28;20042;-72
2023/07/15 00:33:52;;;;;;;8.10;4.43;;;18.90;99.90;;;18.04;72.50;100939.34;5017772;28;20029;-72
2023/07/15 00:36:18;;;;;;;9.23;4.43;;;18.90;99.90;;;18.04;72.08;100934.84;5005595;28;20045;-73
2023/07/15 00:38:44;;;;;;;9.52;4.00;;;18.90;99.90;;;18.00;71.82;100932.53;5014054;28;20042;-71
2023/07/15 00:41:22;;;;;;;9.93;3.67;;;18.90;99.90;;;18.04;71.42;100923.34;5009819;28;20044;-73
2023/07/15 00:43:56;;;;;;;11.55;3.53;;;18.90;99.90;;;18.00;71.47;100927.22;5029932;28;20033;-72
2023/07/15 00:46:54;;;;;;;11.13;3.65;;;18.90;99.90;;;17.99;71.03;100925.50;5034790;28;20453;-72
2023/07/15 00:49:29;;;;;;;7.70;3.80;;;18.80;99.90;;;17.92;70.88;100918.94;5020938;28;20131;-73
2023/07/15 00:52:09;;;;;;;7.43;3.20;;;18.80;99.90;;;17.95;70.67;100913.41;5012605;28;20404;-72
2023/07/15 00:54:45;;;;;;;10.90;3.33;;;18.80;99.90;;;17.89;70.52;100903.19;5009506;28;20060;-72
2023/07/15 00:57:15;;;;;;;8.18;3.90;;;18.70;99.90;;;17.83;70.34;100905.34;5014388;28;20044;-72
2023/07/15 00:59:42;;;;;;;6.43;3.65;;;18.80;99.90;;;17.84;70.29;100898.22;4987090;28;20036;-71
2023/07/15 01:02:12;;;;;;;5.75;3.58;;;18.70;99.90;;;17.79;70.13;100895.84;5016268;28;20037;-72
2023/07/15 01:04:38;;;;;;;7.70;3.05;;;18.70;99.90;;;17.74;70.07;100887.34;4996201;28;20055;-72
2023/07/15 01:07:05;;;;;;;8.52;3.53;;;18.70;99.90;;;17.78;69.95;100883.50;5028160;28;20044;-73
2023/07/15 01:09:32;;;;;;;5.68;3.28;;;18.70;99.90;;;17.79;69.93;100879.00;5013103;28;20032;-71
2023/07/15 01:11:57;;;;;;;5.95;3.10;;;18.70;99.90;;;17.78;69.63;100883.50;5010373;28;22179;-72
2023/07/15 01:14:23;;;;;;;6.03;3.08;;;18.70;99.90;;;17.83;69.72;100878.69;4985092;28;20513;-72
2023/07/15 01:16:49;;;;;;;;;;;18.70;99.90;;;17.68;69.56;100878.97;5006317;28;20037;-71
2023/07/15 01:19:18;;;;;;;6.72;3.25;;;18.60;99.90;;;17.72;69.80;100875.97;5021259;28;20396;-71
2023/07/15 01:21:49;;;;;;;7.72;3.70;;;18.70;99.90;;;17.74;69.24;100879.34;4985530;28;20036;-71
2023/07/15 01:24:20;;;;;;;8.13;3.72;;;18.70;99.90;;;17.74;69.03;100871.38;5006584;28;20037;-72
2023/07/15 01:26:47;;;;;;;6.88;3.10;;;18.70;99.90;;;17.76;69.38;100873.94;5029792;28;20028;-72
2023/07/15 01:29:13;;;;;;;9.63;3.00;;;18.70;99.90;;;17.81;68.70;100883.25;5012820;28;20034;-71
2023/07/15 01:31:41;;;;;;;10.38;3.00;;;18.70;99.90;;;17.80;68.82;100878.91;5015508;28;20045;-71
2023/07/15 01:34:08;;;;;;;8.02;3.15;;;18.70;99.90;;;17.81;68.76;100877.94;5010157;28;20041;-72
2023/07/15 01:36:34;;;;;;;7.35;3.10;;;18.70;99.90;;;17.85;68.40;100870.59;5010594;28;20037;-71
2023/07/15 01:39:00;;;;;;;7.97;3.03;;;18.80;99.90;;;17.92;68.53;100866.50;5012374;28;20128;-72
2023/07/15 01:41:25;;;;;;;6.45;3.13;;;18.80;99.90;;;17.86;68.41;100874.97;5018368;28;20128;-72
2023/07/15 01:43:51;;;;;;;7.22;2.95;;;18.60;99.90;;;17.83;68.48;100868.03;4993807;28;20045;-71
2023/07/15 01:46:17;;;;;;;;;;;18.70;99.90;;;17.75;68.57;100865.09;5002774;28;20379;-72
2023/07/15 01:48:43;;;;;;;10.30;3.45;;;18.70;99.90;;;17.81;68.58;100863.78;4995093;28;19924;-72
2023/07/15 01:51:09;;;;;;;6.78;3.25;;;18.70;99.90;;;17.83;68.55;100861.88;5030012;28;20057;-73
2023/07/15 01:53:35;;;;;;;7.50;3.15;;;18.70;99.90;;;17.86;68.28;100869.66;5018228;28;20405;-72
2023/07/15 01:56:01;;;;;;;8.23;3.00;;;18.70;99.90;;;17.85;68.53;100859.09;5000080;28;20120;-72
2023/07/15 01:58:26;;;;;;;11.15;3.25;;;18.70;99.90;;;17.87;68.12;100862.50;5030104;28;20037;-72
2023/07/15 02:00:52;;;;;;;;;;;18.70;99.90;;;17.72;68.63;100853.81;5015899;28;20045;-73
2023/07/15 02:03:18;;;;;;;6.32;3.35;;;18.70;99.90;;;17.74;68.50;100855.38;5027355;28;19912;-72
2023/07/15 02:05:43;;;;;;;;;;;18.70;99.90;;;17.66;68.68;100852.44;5018438;28;20117;-71
2023/07/15 02:08:09;;;;;;;4.93;3.10;;;18.60;99.90;;;17.73;68.62;100840.38;5029628;28;19924;-72
2023/07/15 02:10:35;;;;;;;;;;;18.60;99.90;;;17.66;68.67;100830.31;5006672;28;20048;-71
2023/07/15 02:13:01;;;;;;;10.25;3.28;;;18.60;99.90;;;17.63;68.85;100831.38;4993041;28;20274;-73
2023/07/15 02:15:27;;;;;;;5.80;2.90;;;18.60;99.90;;;17.66;69.00;100828.47;5001984;28;20116;-72
2023/07/15 02:17:52;;;;;;;4.68;2.97;;;18.60;99.90;;;17.70;68.65;100834.44;5020942;28;20187;-72
2023/07/15 02:20:19;;;;;;;9.02;3.58;;;18.60;99.90;;;17.63;69.30;100823.41;5028947;28;20038;-72
2023/07/15 02:22:45;;;;;;;7.22;3.88;;;18.60;99.90;;;17.65;68.83;100810.81;5027552;28;20029;-72
2023/07/15 02:25:12;;;;;;;5.50;3.15;;;18.50;99.90;;;17.60;69.36;100808.50;5009567;28;20109;-72
2023/07/15 02:27:38;;;;;;;6.72;3.40;;;18.50;99.90;;;17.60;69.18;100800.53;5010460;28;20505;-72
2023/07/15 02:30:08;;;;;;;7.15;3.30;;;18.50;99.90;;;17.51;69.11;100790.53;5010583;28;20037;-72
2023/07/15 02:32:39;;;;;;;7.47;2.78;;;18.40;99.90;;;17.54;69.45;100797.47;5014856;28;20067;-72
2023/07/15 02:35:08;;;;;;;5.63;3.00;;;18.40;99.90;;;17.44;69.44;100794.63;5019876;28;20030;-72
2023/07/15 02:37:36;;;;;;;5.07;3.13;;;18.40;99.90;;;17.50;69.20;100793.34;5015824;28;20029;-71
2023/07/15 02:40:04;;;;;;;8.23;3.47;;;18.40;99.90;;;17.49;68.99;100802.28;5001634;28;20051;-73
2023/07/15 02:42:33;;;;;;;7.53;2.95;;;18.40;99.90;;;17.49;69.14;100797.78;5021180;28;20043;-73
2023/07/15 02:45:04;;;;;;;4.22;3.05;;;18.40;99.90;;;17.51;68.95;100797.69;5021927;28;20036;-72
2023/07/15 02:47:33;;;;;;;10.35;3.40;;;18.80;99.90;;;17.46;68.88;100787.38;5003874;28;20072;-73
2023/07/15 02:50:09;;;;;;;8.73;3.38;;;18.40;99.90;;;17.43;69.23;100788.47;5018401;28;20052;-72
2023/07/15 02:52:38;;;;;;;6.30;3.30;;;18.40;99.90;;;17.49;68.95;100789.78;5033066;28;20049;-72
2023/07/15 02:55:09;;;;;;;4.25;2.80;;;18.40;99.90;;;17.46;68.97;100789.19;5023459;28;20029;-71
2023/07/15 02:57:35;;;;;;;6.32;3.30;;;18.40;99.90;;;17.47;69.05;100782.91;5012259;28;20045;-72
2023/07/15 03:00:07;;;;;;;6.38;3.20;;;18.40;99.90;;;17.48;68.84;100790.78;5015288;28;20030;-73
2023/07/15 03:02:33;;;;;;;7.70;3.40;;;18.40;99.90;;;17.53;68.95;100793.94;5004272;28;20045;-72
2023/07/15 03:05:00;;;;;;;5.80;3.40;;;18.40;99.90;;;17.46;68.77;100794.53;4995488;28;20497;-72
2023/07/15 03:07:25;;;;;;;6.28;3.15;;;18.40;99.90;;;17.40;68.96;100786.00;5020947;28;20033;-73
2023/07/15 03:09:51;;;;;;;6.38;3.10;;;18.40;99.90;;;17.41;69.21;100787.72;4994155;28;21110;-72
2023/07/15 03:12:17;;;;;;;;;;;18.40;99.90;;;17.23;69.39;100783.75;5031437;28;20060;-73
2023/07/15 03:14:43;;;;;;;9.45;3.40;;;18.20;99.90;;;17.20;69.78;100770.69;4998441;28;19921;-73
2023/07/15 03:17:11;;;;;;;7.10;3.60;;;18.20;99.90;;;17.28;69.42;100768.31;5023518;28;20053;-72
2023/07/15 03:19:37;;;;;;;5.10;3.08;;;18.20;99.90;;;17.24;69.77;100768.66;4986792;28;20051;-72
2023/07/15 03:22:04;;;;;;;8.43;3.15;;;18.20;99.90;;;17.16;69.52;100770.06;5013497;28;20033;-72
2023/07/15 03:24:30;;;;;;;9.18;2.85;;;18.10;99.90;;;17.12;69.85;100768.56;5024539;28;20040;-71
2023/07/15 03:26:56;;;;;;;5.05;3.10;;;18.10;99.90;;;17.16;69.97;100762.06;5016572;28;20049;-72
2023/07/15 03:29:25;;;;;;;6.72;3.42;;;18.10;99.90;;;17.24;69.54;100776.63;5005834;28;20036;-72
2023/07/15 03:31:51;;;;;;;6.15;2.97;;;18.10;99.90;;;17.23;69.43;100773.09;5013059;28;20025;-73
2023/07/15 03:34:18;;;;;;;9.32;3.45;;;18.10;99.90;;;17.17;69.83;100769.09;5032605;28;20033;-72
2023/07/15 03:36:44;;;;;;;4.97;3.10;;;18.10;99.90;;;17.24;69.78;100774.81;5012661;28;20516;-71
2023/07/15 03:39:09;;;;;;;7.97;4.05;;;18.10;99.90;;;17.24;69.83;100776.63;5021970;28;20117;-72
2023/07/15 03:41:36;;;;;;;15.20;3.28;;;18.20;99.90;;;17.26;69.82;100772.91;5013291;28;20128;-72
2023/07/15 03:44:03;;;;;;;4.85;3.40;;;18.20;99.90;;;17.34;69.74;100773.19;5004707;28;20083;-72
2023/07/15 03:46:30;;;;;;;7.13;3.50;;;18.20;99.90;;;17.48;69.64;100774.81;4993994;28;20493;-72
2023/07/15 03:48:56;;;;;;;7.75;3.00;;;18.30;99.90;;;17.49;69.73;100787.13;4997315;28;20065;-72
2023/07/15 03:51:21;;;;;;;7.40;3.25;;;18.40;99.90;;;17.58;69.49;100783.81;5014019;28;20378;-73
2023/07/15 03:53:48;;;;;;;6.32;3.22;;;18.50;99.90;;;17.80;68.86;100784.84;5012581;28;20029;-71
2023/07/15 03:56:14;;;;;;;5.85;3.60;;;18.90;99.90;;;18.18;67.94;100781.06;4978844;28;20069;-71
2023/07/15 03:58:39;;;;;;;7.45;3.35;;;19.60;99.90;;;18.93;66.19;100787.63;5012766;28;20124;-74
2023/07/15 04:01:05;;;;;;;7.88;3.25;;;20.70;99.90;;;20.13;62.91;100801.72;5017399;28;20052;-72
2023/07/15 04:03:31;;;;;;;8.32;3.35;;;21.40;99.90;;;20.83;60.36;100803.63;5004545;28;20045;-72
2023/07/15 04:05:57;;;;;;;8.50;3.65;;;21.80;99.90;;;20.94;59.38;100797.34;5008762;28;20072;-72
2023/07/15 04:08:23;;;;;;;9.07;2.88;;;22.00;99.90;;;21.12;59.08;100797.50;5014050;28;20056;-73
2023/07/15 04:10:48;;;;;;;5.90;3.05;;;22.10;99.90;;;21.19;58.90;100789.78;5014022;28;20100;-73
2023/07/15 04:13:14;;;;;;;;;;;22.20;99.90;;;21.94;57.04;100796.28;4985204;28;20045;-72
2023/07/15 04:15:40;;;;;;;5.72;3.17;;;23.00;99.90;;;22.07;56.19;100798.66;5013007;28;19913;-73
2023/07/15 04:18:05;;;;;;;;;;;22.90;99.90;;;21.53;56.52;100792.91;5022209;28;20281;-71
2023/07/15 04:20:33;;;;;;;5.90;3.47;;;23.00;99.60;;;22.27;56.09;100794.16;5006393;28;19921;-72
2023/07/15 04:22:59;;;;;;;9.00;3.42;;;23.70;98.60;;;23.24;53.64;100798.19;5002604;28;20035;-72
2023/07/15 04:25:25;;;;;;;6.90;3.08;;;24.10;98.00;;;23.62;52.38;100813.16;5012915;28;20040;-73
2023/07/15 04:27:50;;;;;;;5.68;3.03;;;24.50;97.00;;;24.09;51.92;100814.75;4992986;28;20025;-73
2023/07/15 04:30:16;;;;;;;5.78;2.90;;;25.20;95.90;;;25.10;49.47;100814.94;5013416;28;20615;-72
2023/07/15 04:32:42;;;;;;;6.88;2.83;;;25.50;95.00;;;24.76;49.18;100815.84;5012229;28;20517;-72
2023/07/15 04:35:08;;;;;;;4.40;3.00;;;24.50;95.80;;;23.04;52.68;100792.94;5010947;28;20539;-71
2023/07/15 04:37:35;;;;;;;6.22;3.40;;;23.70;96.90;;;22.28;54.25;100780.56;5012872;28;20448;-70
2023/07/15 04:40:04;;;;;;;5.47;2.85;;;23.40;97.30;;;22.01;54.43;100772.41;5003099;28;20098;-73
2023/07/15 04:42:29;;;;;;;4.88;2.53;;;22.50;98.40;;;20.83;57.24;100752.78;5013627;28;20033;-73
2023/07/15 04:44:55;;;;;;;5.32;2.97;;;21.90;99.70;;;20.32;58.45;100743.00;5023701;28;20088;-72
2023/07/15 04:47:21;;;;;;;8.23;2.92;;;21.50;99.90;;;20.20;59.20;100752.97;5023215;28;20103;-73
2023/07/15 04:49:47;;;;;;;5.78;3.05;;;21.20;99.90;;;20.12;59.71;100747.44;4995989;28;20506;-72
2023/07/15 04:52:12;;;;;;;6.20;2.95;;;21.00;99.90;;;19.99;60.04;100744.97;5013074;28;20049;-72
2023/07/15 04:54:38;;;;;;;6.97;3.03;;;20.90;99.90;;;20.29;59.77;100748.63;5011673;28;20117;-71
2023/07/15 04:57:04;;;;;;;;;;;21.00;99.90;;;20.24;59.83;100742.88;5011701;28;20063;-72
2023/07/15 04:59:30;;;;;;;8.18;3.13;;;21.00;99.90;;;20.94;58.89;100754.50;5003753;28;20450;-73
2023/07/15 05:01:56;;;;;;;3.97;2.47;;;21.80;99.90;;;23.41;54.01;100775.00;5029754;28;20044;-72
2023/07/15 05:04:21;;;;;;;4.72;3.13;;;23.20;99.50;;;24.96;49.55;100788.63;5010192;28;20175;-72
2023/07/15 05:06:47;;;;;;;5.25;2.70;;;23.60;98.40;;;23.58;51.86;100757.19;5001345;28;20136;-72
2023/07/15 05:09:13;;;;;;;;;;;23.60;99.00;;;24.47;50.61;100777.63;5026131;28;20717;-72
2023/07/15 05:11:39;;;;;;;5.35;2.88;;;25.00;96.80;;;27.34;45.75;100826.13;5029872;28;20397;-72
2023/07/15 05:14:05;;;;;;;;;;;25.10;97.30;;;28.93;42.78;100843.28;4991662;28;20061;-72
2023/07/15 05:16:31;;;;;;;5.88;2.83;;;27.50;93.60;;;30.00;40.51;100845.28;4991924;28;20400;-73
2023/07/15 05:18:56;;;;;;;5.20;2.88;;;28.50;91.80;;;30.75;39.24;100868.16;5028551;28;20067;-71
2023/07/15 05:21:22;;;;;;;7.90;3.10;;;29.10;90.80;;;31.31;38.36;100879.94;5028439;28;20116;-72
2023/07/15 05:23:48;;;;;;;5.80;2.65;;;29.30;90.00;;;30.58;38.87;100877.69;5011130;28;20029;-74
2023/07/15 05:26:14;;;;;;;9.18;2.65;;;29.80;89.60;;;32.19;37.34;100886.19;5000966;28;20141;-71
2023/07/15 05:28:39;;;;;;;9.82;2.70;;;30.10;86.50;;;31.74;37.29;100875.06;5028681;28;20112;-72
2023/07/15 05:31:06;;;;;;;7.72;3.13;;;30.80;86.60;;;33.18;35.59;100895.25;5002010;28;20099;-72
2023/07/15 05:33:31;;;;;;;4.57;2.70;;;31.30;84.50;;;32.75;35.57;100903.13;5010306;28;20032;-71
2023/07/15 05:35:58;;;;;;;6.57;2.45;;;31.30;84.10;;;33.19;34.98;100902.38;5005718;28;20033;-73
2023/07/15 05:38:26;;;;;;;5.57;2.67;;;31.10;83.50;;;31.20;37.32;100887.66;5030312;28;20083;-72
2023/07/15 05:40:55;;;;;;;8.30;2.47;;;30.80;84.40;;;30.62;38.05;100876.25;5003207;28;20036;-72
2023/07/15 05:43:21;;;;;;;4.85;2.95;;;29.60;84.60;;;28.41;41.46;100845.88;5029463;28;20073;-75
2023/07/15 05:45:47;;;;;;;6.00;2.85;;;29.30;87.10;;;30.83;38.51;100873.44;5009982;28;20120;-76
2023/07/15 05:48:13;;;;;;;4.28;2.47;;;29.80;87.20;;;32.23;36.46;100889.34;5010998;28;20465;-72
2023/07/15 05:50:40;;;;;;;6.18;3.05;;;30.60;85.90;;;33.70;34.81;100904.22;5004872;28;20037;-73
2023/07/15 05:53:06;;;;;;;5.38;2.40;;;31.30;83.50;;;33.61;34.36;100908.28;5011882;28;20033;-73
2023/07/15 05:55:33;;;;;;;7.53;2.47;;;31.90;82.50;;;34.45;33.22;100911.63;5027909;28;20028;-73
2023/07/15 05:58:02;;;;;;;6.40;2.63;;;32.50;80.30;;;34.46;33.16;100913.28;5030776;28;20093;-73
2023/07/15 06:00:31;;;;;;;4.70;2.30;;;32.90;80.20;;;35.09;32.34;100908.63;5026913;28;20435;-73
2023/07/15 06:02:57;;;;;;;6.60;2.63;;;33.40;79.40;;;35.27;32.58;100910.53;5003238;28;20108;-74
2023/07/15 06:05:23;;;;;;;4.68;2.30;;;33.50;79.40;;;35.77;31.99;100912.19;5032114;28;20583;-73
2023/07/15 06:07:49;;;;;;;9.25;2.67;;;33.80;78.00;;;35.23;32.04;100910.19;4984921;28;20037;-73
2023/07/15 06:10:15;;;;;;;5.38;2.35;;;33.60;76.10;;;34.13;32.96;100888.16;5025362;28;20033;-73
2023/07/15 06:12:42;;;;;;;6.65;2.67;;;33.80;76.60;;;35.07;32.33;100905.28;4991592;28;20363;-73
2023/07/15 06:15:08;;;;;;;8.68;2.50;;;34.10;75.60;;;35.37;31.88;100904.53;5002113;28;20044;-73
2023/07/15 06:17:34;;;;;;;5.40;2.10;;;34.60;76.60;;;36.61;30.70;100909.34;5028956;28;20033;-73
2023/07/15 06:20:00;;;;;;;4.55;2.22;;;35.20;74.20;;;36.03;30.72;100906.28;5030291;28;20036;-74
2023/07/15 06:22:26;;;;;;;7.80;2.42;;;34.90;72.90;;;35.31;31.71;100900.81;5018011;28;20084;-74
2023/07/15 06:24:51;;;;;;;6.88;2.13;;;35.00;73.30;;;35.46;31.51;100903.97;5029823;28;20045;-73
2023/07/15 06:27:18;;;;;;;4.72;2.10;;;35.00;72.90;;;35.61;31.12;100905.44;5008041;28;20129;-73
2023/07/15 06:29:45;;;;;;;6.03;2.25;;;35.00;72.20;;;35.50;31.19;100890.66;5010074;28;20041;-72
2023/07/15 06:32:10;;;;;;;5.63;2.05;;;35.10;72.70;;;35.84;31.09;100882.78;5027722;28;20060;-72
2023/07/15 06:34:39;;;;;;;3.33;2.40;;;35.40;72.50;;;36.40;30.68;100886.91;5023700;28;20653;-74
2023/07/15 06:37:05;;;;;;;7.78;2.42;;;35.90;73.00;;;37.13;29.82;100895.66;5019650;28;20410;-73
2023/07/15 06:39:31;;;;;;;7.22;2.30;;;36.30;72.20;;;37.56;29.03;100899.78;5027860;28;20033;-74
2023/07/15 06:41:57;;;;;;;5.22;2.35;;;36.30;70.10;;;36.23;30.29;100889.53;5000231;28;20471;-74
2023/07/15 06:44:24;;;;;;;4.63;2.22;;;36.10;68.90;;;36.01;30.48;100882.94;5009756;28;20041;-73
2023/07/15 06:46:50;;;;;;;11.25;2.40;;;36.20;68.70;;;35.94;30.15;100880.28;4976665;28;20029;-72
2023/07/15 06:49:16;;;;;;;4.40;2.00;;;36.00;69.30;;;35.19;31.43;100869.84;5014844;28;20036;-73
2023/07/15 06:51:42;;;;;;;3.47;2.33;;;35.70;71.00;;;35.17;31.38;100867.31;5001246;28;20033;-73
2023/07/15 06:54:08;;;;;;;4.40;2.50;;;35.60;70.30;;;35.33;30.76;100874.88;5027140;28;20037;-73
2023/07/15 06:56:34;;;;;;;9.80;2.10;;;35.40;70.50;;;35.74;30.80;100859.53;5011843;28;20590;-73
2023/07/15 06:58:59;;;;;;;6.65;2.05;;;35.30;70.10;;;34.77;32.12;100842.34;5020751;28;20049;-73
2023/07/15 07:01:25;;;;;;;3.38;2.30;;;35.50;71.40;;;35.41;31.33;100856.47;5013083;28;20116;-74
2023/07/15 07:03:52;;;;;;;3.80;2.00;;;35.10;71.90;;;34.89;31.64;100841.34;5028020;28;20111;-74
2023/07/15 07:06:21;;;;;;;6.07;2.17;;;35.00;71.70;;;34.70;32.42;100823.28;4992481;28;20064;-73
2023/07/15 07:08:47;;;;;;;4.95;2.33;;;34.00;70.00;;;32.17;34.93;100784.78;5009964;28;20041;-73
2023/07/15 07:11:13;;;;;;;8.25;2.40;;;33.20;72.00;;;30.88;36.42;100760.59;5028507;28;20041;-73
2023/07/15 07:13:39;;;;;;;6.63;2.22;;;32.20;74.80;;;30.78;36.85;100750.91;5001239;28;20025;-74
2023/07/15 07:16:05;;;;;;;5.78;2.40;;;32.20;76.30;;;31.11;36.81;100744.75;5020838;28;20460;-73
2023/07/15 07:18:30;;;;;;;6.78;2.20;;;32.10;77.30;;;32.73;35.13;100753.41;5007547;28;20050;-72
2023/07/15 07:20:59;;;;;;;4.38;1.90;;;33.00;76.50;;;34.40;32.99;100771.25;5022480;28;20117;-73
2023/07/15 07:23:26;;;;;;;6.13;2.28;;;34.10;74.40;;;35.00;32.36;100782.28;5013718;28;20029;-73
2023/07/15 07:25:52;;;;;;;5.00;2.00;;;34.70;70.40;;;34.76;32.06;100780.50;5029349;28;20032;-72
2023/07/15 07:28:58;;;;;;;6.18;2.00;;;34.70;69.80;;;34.66;31.35;100789.25;5005133;28;20032;-74
2023/07/15 07:31:24;;;;;;;8.38;1.80;;;34.80;70.80;;;34.43;32.44;100784.44;4942160;28;20031;-72
2023/07/15 07:33:49;;;;;;;5.35;1.85;;;34.80;71.70;;;34.82;31.94;100783.16;4942885;28;20053;-72
2023/07/15 07:36:18;;;;;;;9.73;2.30;;;35.30;70.40;;;35.70;30.62;100800.00;4935060;28;20053;-72
2023/07/15 07:38:45;;;;;;;4.47;1.95;;;35.20;69.90;;;34.80;31.87;100784.47;4934969;28;20540;-78
2023/07/15 07:41:13;;;;;;;4.63;2.10;;;35.50;70.60;;;35.79;30.42;100790.38;4928461;28;20126;-73
2023/07/15 07:43:39;;;;;;;6.45;2.10;;;35.60;68.90;;;35.66;30.81;100788.69;4949592;28;20035;-73
2023/07/15 07:46:09;;;;;;;4.97;2.10;;;35.90;68.40;;;36.00;30.16;100799.06;4952001;28;20727;-76
2023/07/15 07:48:35;;;;;;;9.32;2.03;;;36.00;68.00;;;35.39;30.66;100788.25;4934921;28;20125;-75
2023/07/15 07:51:02;;;;;;;5.07;2.08;;;35.40;67.50;;;34.36;31.43;100773.56;4953135;28;20558;-74
2023/07/15 07:53:29;;;;;;;5.25;2.00;;;35.20;69.00;;;35.04;31.07;100771.72;4949982;28;20034;-73
2023/07/15 07:55:55;;;;;;;12.60;2.17;;;35.20;68.70;;;34.62;31.57;100763.38;4948139;28;20035;-74
2023/07/15 07:58:22;;;;;;;3.22;2.00;;;34.90;68.40;;;34.38;31.97;100755.06;4938115;28;20032;-74
2023/07/15 08:00:50;;;;;;;9.50;2.00;;;35.00;69.90;;;35.22;30.82;100755.25;4949918;28;20047;-73
2023/07/15 08:03:16;;;;;;;6.20;2.22;;;35.10;67.80;;;35.06;30.97;100769.56;4949043;28;20110;-74
2023/07/15 08:05:46;;;;;;;6.35;1.73;;;35.20;68.80;;;35.54;30.42;100765.91;4999628;28;20084;-74
2023/07/15 08:08:13;;;;;;;4.35;2.08;;;35.50;68.40;;;35.78;30.06;100763.22;5011760;28;20734;-74
2023/07/15 08:10:40;;;;;;;5.07;2.03;;;35.20;68.50;;;34.98;31.36;100758.94;5005658;28;20052;-73
2023/07/15 08:13:07;;;;;;;5.90;2.17;;;35.20;70.40;;;35.57;30.71;100754.47;5003143;28;20490;-74
2023/07/15 08:15:37;;;;;;;4.00;1.80;;;35.50;68.90;;;35.89;30.60;100752.25;5013040;28;20045;-73
2023/07/15 08:18:04;;;;;;;4.72;2.17;;;35.80;68.20;;;36.10;29.93;100763.69;5027924;28;20091;-73
2023/07/15 08:20:30;;;;;;;6.68;1.80;;;35.90;70.40;;;36.41;30.46;100762.44;5014157;28;20061;-72
2023/07/15 08:22:57;;;;;;;4.05;1.95;;;35.80;67.40;;;35.32;30.43;100744.56;5004354;28;20064;-72
2023/07/15 08:25:23;;;;;;;5.10;1.92;;;35.50;68.10;;;35.15;31.08;100746.31;5021852;28;20095;-76
2023/07/15 08:27:49;;;;;;;4.72;2.30;;;35.20;68.70;;;34.98;31.87;100726.13;5002054;28;20464;-76
2023/07/15 08:30:14;;;;;;;9.27;2.17;;;35.00;68.30;;;34.71;31.48;100719.13;4995249;28;20029;-77
2023/07/15 08:32:40;;;;;;;4.88;2.13;;;34.50;68.80;;;33.76;33.04;100708.66;5011040;28;20032;-76
2023/07/15 08:35:06;;;;;;;7.13;1.90;;;34.20;70.00;;;33.91;32.72;100700.91;5024874;28;20501;-76
2023/07/15 08:37:32;;;;;;;7.15;1.85;;;34.00;71.20;;;33.81;32.63;100699.78;5026085;28;20405;-76
2023/07/15 08:39:58;;;;;;;5.18;1.88;;;33.80;70.70;;;33.38;33.59;100689.66;5002078;28;20082;-76
2023/07/15 08:42:24;;;;;;;6.40;1.98;;;33.50;70.80;;;32.87;33.93;100665.03;5030395;28;20121;-76
2023/07/15 08:44:51;;;;;;;3.60;1.85;;;33.30;70.50;;;32.64;33.81;100662.88;4990131;28;20040;-76
2023/07/15 08:47:23;;;;;;;5.70;2.10;;;33.10;70.80;;;32.62;33.65;100664.16;5007507;28;20070;-75
2023/07/15 08:49:53;;;;;;;9.43;1.80;;;33.10;73.50;;;32.83;34.61;100660.22;4995371;28;20091;-75
2023/07/15 08:52:26;;;;;;;9.40;1.92;;;33.10;71.30;;;32.88;33.90;100658.50;5012460;28;20045;-76
2023/07/15 08:54:53;;;;;;;11.40;2.20;;;33.20;71.20;;;33.10;33.86;100666.34;5028558;28;20484;-75
2023/07/15 08:57:24;;;;;;;5.13;2.00;;;33.30;72.00;;;33.06;33.98;100665.09;5023100;28;20160;-76
2023/07/15 08:59:54;;;;;;;5.90;2.03;;;33.30;72.00;;;32.75;34.61;100655.88;4995464;28;20120;-76
2023/07/15 09:02:20;;;;;;;8.60;2.13;;;33.00;72.00;;;32.38;34.52;100636.56;5012366;28;20056;-74
2023/07/15 09:04:47;;;;;;;8.13;2.10;;;32.90;72.00;;;32.55;34.22;100644.25;4988298;28;20039;-73
2023/07/15 09:07:13;;;;;;;4.30;1.90;;;32.90;70.80;;;32.40;34.20;100639.09;5030682;28;20493;-73
2023/07/15 09:09:42;;;;;;;3.65;2.03;;;32.90;70.60;;;32.39;34.13;100642.84;5013311;28;20045;-73
2023/07/15 09:12:11;;;;;;;8.45;2.00;;;32.90;72.60;;;32.63;34.34;100633.91;5011738;28;20124;-74
2023/07/15 09:14:52;;;;;;;7.32;1.88;;;33.00;72.00;;;32.92;34.25;100633.53;5005785;28;20064;-74
2023/07/15 09:17:26;;;;;;;5.28;1.65;;;33.20;72.50;;;33.11;33.64;100640.75;5010341;28;20033;-75
2023/07/15 09:19:52;;;;;;;7.63;2.20;;;33.30;72.70;;;33.02;34.38;100642.88;5019001;28;20145;-73
2023/07/15 09:22:23;;;;;;;6.90;2.88;;;33.40;71.40;;;33.22;33.75;100648.22;5014815;28;20688;-73
2023/07/15 09:24:48;;;;;;;6.18;1.98;;;33.60;72.00;;;33.48;33.74;100651.78;5010046;28;20124;-74
2023/07/15 09:27:14;;;;;;;75.70;4.93;;;33.70;71.70;;;33.79;33.04;100655.47;5012110;28;20022;-75
2023/07/15 09:29:52;;;;;;;6.55;1.88;;;33.90;67.20;;;33.47;31.35;100652.81;5031822;28;20091;-74
2023/07/15 09:32:22;;;;;;;7.13;1.83;;;33.90;68.90;;;33.42;32.12;100649.94;5023140;28;20047;-73
2023/07/15 09:34:54;;;;;;;7.18;1.98;;;33.80;68.70;;;33.53;32.06;100662.00;5008312;28;20119;-75
2023/07/15 09:37:32;;;;;;;6.35;2.08;;;33.70;68.20;;;33.17;31.79;100650.75;5014715;28;20033;-75
2023/07/15 09:40:08;;;;;;;10.80;2.10;;;33.60;67.20;;;33.14;32.04;100648.50;5011057;28;20065;-74
2023/07/15 09:42:59;;;;;;;74.85;6.57;;;33.60;68.50;;;33.23;31.91;100646.31;5011192;28;20045;-74
2023/07/15 09:45:34;;;;;;;10.93;2.40;;;33.60;69.60;;;33.20;31.48;100646.78;5031391;28;20045;-72
2023/07/15 09:48:09;;;;;;;5.28;1.80;;;33.50;68.30;;;33.05;32.29;100639.72;5016343;28;20029;-74
2023/07/15 09:50:38;;;;;;;7.97;1.98;;;33.50;71.20;;;33.39;32.81;100636.72;5010536;28;20116;-73
2023/07/15 09:53:05;;;;;;;48.15;4.15;;;33.70;71.80;;;33.73;32.66;100642.72;5010299;28;20626;-74
2023/07/15 09:55:37;;;;;;;8.50;2.30;;;34.00;66.40;;;33.85;30.95;100651.84;5027695;28;20049;-74
2023/07/15 09:58:23;;;;;;;8.95;2.05;;;34.10;68.10;;;34.15;31.11;100659.28;5008655;28;20034;-73
2023/07/15 10:01:22;;;;;;;12.27;1.65;;;34.40;70.20;;;34.52;31.74;100655.44;5011019;28;20505;-74
2023/07/15 10:04:04;;;;;;;32.33;3.25;;;34.70;67.80;;;34.81;31.28;100661.13;4933894;28;20084;-73
2023/07/15 10:06:33;;;;;;;20.63;2.75;;;35.00;67.00;;;34.94;30.63;100665.56;4934014;28;20035;-73
2023/07/15 10:09:01;;;;;;;2.85;1.60;;;35.00;66.40;;;34.79;30.27;100666.00;4939821;28;21128;-74
2023/07/15 10:11:30;;;;;;;4.93;1.90;;;35.00;66.00;;;34.69;30.58;100652.91;4944426;28;20031;-73
2023/07/15 10:14:00;;;;;;;11.10;1.98;;;34.90;65.30;;;34.34;30.39;100657.38;4957331;28;20040;-73
2023/07/15 10:16:26;;;;;;;19.08;2.30;;;34.80;65.60;;;34.40;31.00;100654.53;4958141;28;20131;-74
2023/07/15 10:18:55;;;;;;;8.00;2.00;;;34.80;66.00;;;34.51;30.26;100653.78;4933136;28;20066;-73